Time,TemperatureF,DewpointF,PressureIn,WindDirection,WindDirectionDegrees,WindSpeedMPH,WindSpeedGustMPH,Humidity,HourlyPrecipIn,Conditions,Clouds,dailyrainin,SolarRadiationWatts/m^2,SoftwareType,DateUTC
2013-09-07 00:02:00,87.0,66.0,-100.00,ESE,122,12.0,39.0,50,0.00,,,0.00,0.000000,,2013-09-07 07:02:00,
2013-09-07 00:42:00,85.0,65.0,-100.00,ENE,78,3.0,27.0,51,0.00,,,0.00,0.000000,,2013-09-07 07:42:00,
2013-09-07 00:52:00,85.0,65.0,-100.00,ENE,78,3.0,27.0,51,0.00,,,0.00,0.000000,,2013-09-07 07:52:00,
2013-09-07 01:02:00,85.0,65.0,-100.00,ENE,78,3.0,27.0,51,0.00,,,0.00,0.000000,,2013-09-07 08:02:00,
2013-09-07 01:43:00,86.0,67.0,-100.00,WSW,247,4.0,15.0,54,0.00,,,0.00,0.000000,,2013-09-07 08:43:00,
2013-09-07 01:53:00,86.0,67.0,-100.00,WSW,247,4.0,15.0,54,0.00,,,0.00,0.000000,,2013-09-07 08:53:00,
2013-09-07 02:01:00,86.0,67.0,-100.00,WSW,247,4.0,15.0,54,0.00,,,0.00,0.000000,,2013-09-07 09:01:00,
2013-09-07 02:42:00,85.0,70.0,-100.00,SW,227,7.0,7.0,60,0.00,,,0.00,0.000000,,2013-09-07 09:42:00,
2013-09-07 02:52:00,85.0,70.0,-100.00,SW,227,7.0,7.0,60,0.00,,,0.00,0.000000,,2013-09-07 09:52:00,
2013-09-07 03:01:00,85.0,70.0,-100.00,SW,227,7.0,7.0,60,0.00,,,0.00,0.000000,,2013-09-07 10:01:00,
2013-09-07 03:41:00,84.0,70.0,-100.00,SSE,158,3.0,10.0,64,0.00,,,0.00,0.000000,,2013-09-07 10:41:00,
2013-09-07 03:51:00,84.0,70.0,-100.00,SSE,158,3.0,10.0,64,0.00,,,0.00,0.000000,,2013-09-07 10:51:00,
2013-09-07 04:03:00,84.0,70.0,-100.00,SSE,158,3.0,10.0,64,0.00,,,0.00,0.000000,,2013-09-07 11:03:00,
2013-09-07 04:43:00,81.0,65.0,-100.00,SSE,152,3.0,10.0,58,0.00,,,0.00,0.000000,,2013-09-07 11:43:00,
2013-09-07 04:52:00,81.0,65.0,-100.00,SSE,152,3.0,10.0,58,0.00,,,0.00,0.000000,,2013-09-07 11:52:00,
2013-09-07 05:02:00,81.0,65.0,-100.00,SSE,152,3.0,10.0,58,0.00,,,0.00,0.000000,,2013-09-07 12:02:00,
2013-09-07 05:42:00,83.0,67.0,-100.00,ENE,61,4.0,9.0,59,0.00,,,0.00,0.000000,,2013-09-07 12:42:00,
2013-09-07 05:52:00,83.0,67.0,-100.00,ENE,61,4.0,9.0,59,0.00,,,0.00,0.000000,,2013-09-07 12:52:00,
2013-09-07 06:02:00,83.0,67.0,-100.00,ENE,61,4.0,9.0,59,0.00,,,0.00,0.000000,,2013-09-07 13:02:00,
2013-09-07 06:42:00,81.0,64.0,-100.00,ESE,113,4.0,8.0,56,0.00,,,0.00,0.000000,,2013-09-07 13:42:00,
2013-09-07 06:52:00,81.0,64.0,-100.00,ESE,113,4.0,8.0,56,0.00,,,0.00,0.000000,,2013-09-07 13:52:00,
2013-09-07 07:01:00,81.0,64.0,-100.00,ESE,113,4.0,8.0,56,0.00,,,0.00,0.000000,,2013-09-07 14:01:00,
2013-09-07 07:42:00,82.0,65.0,-100.00,East,80,7.0,9.0,57,0.00,,,0.00,0.000000,,2013-09-07 14:42:00,
2013-09-07 07:52:00,82.0,65.0,-100.00,East,80,7.0,9.0,57,0.00,,,0.00,0.000000,,2013-09-07 14:52:00,
2013-09-07 08:02:00,82.0,65.0,-100.00,East,80,7.0,9.0,57,0.00,,,0.00,0.000000,,2013-09-07 15:02:00,
2013-09-07 08:44:00,82.0,64.0,-100.00,East,84,9.0,11.0,55,0.00,,,0.00,20.000000,,2013-09-07 15:44:00,
2013-09-07 08:54:00,82.0,64.0,-100.00,East,84,9.0,11.0,55,0.00,,,0.00,20.000000,,2013-09-07 15:54:00,
2013-09-07 09:03:00,82.0,64.0,-100.00,East,84,9.0,11.0,55,0.00,,,0.00,20.000000,,2013-09-07 16:03:00,
2013-09-07 09:43:00,84.0,63.0,-100.00,ENE,77,6.0,12.0,50,0.00,,,0.00,84.000000,,2013-09-07 16:43:00,
2013-09-07 09:53:00,84.0,63.0,-100.00,ENE,77,6.0,12.0,50,0.00,,,0.00,84.000000,,2013-09-07 16:53:00,
2013-09-07 10:04:00,84.0,63.0,-100.00,ENE,77,6.0,12.0,50,0.00,,,0.00,84.000000,,2013-09-07 17:04:00,
2013-09-07 10:43:00,87.0,62.0,-100.00,East,94,8.0,12.0,43,0.00,,,0.00,158.000000,,2013-09-07 17:43:00,
2013-09-07 10:52:00,87.0,62.0,-100.00,East,94,8.0,12.0,43,0.00,,,0.00,158.000000,,2013-09-07 17:52:00,
2013-09-07 11:01:00,87.0,62.0,-100.00,East,94,8.0,12.0,43,0.00,,,0.00,158.000000,,2013-09-07 18:01:00,
2013-09-07 11:43:00,91.0,60.0,-100.00,East,95,8.0,12.0,36,0.00,,,0.00,410.000000,,2013-09-07 18:43:00,
2013-09-07 11:52:00,91.0,60.0,-100.00,East,95,8.0,12.0,36,0.00,,,0.00,410.000000,,2013-09-07 18:52:00,
2013-09-07 12:02:00,91.0,60.0,-100.00,East,95,8.0,12.0,36,0.00,,,0.00,410.000000,,2013-09-07 19:02:00,
2013-09-07 12:42:00,94.0,64.0,-100.00,SE,126,6.0,13.0,38,0.00,,,0.00,642.000000,,2013-09-07 19:42:00,
2013-09-07 12:52:00,94.0,64.0,-100.00,SE,126,6.0,13.0,38,0.00,,,0.00,642.000000,,2013-09-07 19:52:00,
2013-09-07 13:02:00,94.0,64.0,-100.00,SE,126,6.0,13.0,38,0.00,,,0.00,642.000000,,2013-09-07 20:02:00,
2013-09-07 13:42:00,91.0,63.0,-100.00,SE,131,5.0,12.0,39,0.00,,,0.00,522.000000,,2013-09-07 20:42:00,
2013-09-07 13:53:00,91.0,63.0,-100.00,SE,131,5.0,12.0,39,0.00,,,0.00,522.000000,,2013-09-07 20:53:00,
2013-09-07 14:02:00,91.0,63.0,-100.00,SE,131,5.0,12.0,39,0.00,,,0.00,522.000000,,2013-09-07 21:02:00,
2013-09-07 14:44:00,93.0,63.0,-100.00,ENE,74,4.0,11.0,37,0.00,,,0.00,401.000000,,2013-09-07 21:44:00,
2013-09-07 14:54:00,93.0,63.0,-100.00,ENE,74,4.0,11.0,37,0.00,,,0.00,401.000000,,2013-09-07 21:54:00,
2013-09-07 15:04:00,93.0,63.0,-100.00,ENE,74,4.0,11.0,37,0.00,,,0.00,401.000000,,2013-09-07 22:04:00,
2013-09-07 15:43:00,95.0,58.0,-100.00,ESE,106,5.0,11.0,29,0.00,,,0.00,525.000000,,2013-09-07 22:43:00,
2013-09-07 15:53:00,95.0,58.0,-100.00,ESE,106,5.0,11.0,29,0.00,,,0.00,525.000000,,2013-09-07 22:53:00,
2013-09-07 16:03:00,95.0,58.0,-100.00,ESE,106,5.0,11.0,29,0.00,,,0.00,525.000000,,2013-09-07 23:03:00,
2013-09-07 16:42:00,97.0,57.0,-100.00,SSE,152,3.0,12.0,27,0.00,,,-99.99,751.000000,,2013-09-07 23:42:00,
2013-09-07 16:52:00,97.0,57.0,-100.00,SSE,152,3.0,12.0,27,0.00,,,-99.99,751.000000,,2013-09-07 23:52:00,
2013-09-07 17:02:00,97.0,57.0,-100.00,SSE,152,3.0,12.0,27,0.00,,,-99.99,751.000000,,2013-09-08 00:02:00,
2013-09-07 17:42:00,97.0,57.0,-100.00,SW,220,1.0,11.0,27,0.00,,,0.00,481.000000,,2013-09-08 00:42:00,
2013-09-07 17:52:00,97.0,57.0,-100.00,SW,220,1.0,11.0,27,0.00,,,0.00,481.000000,,2013-09-08 00:52:00,
2013-09-07 18:01:00,97.0,57.0,-100.00,SW,220,1.0,11.0,27,0.00,,,0.00,481.000000,,2013-09-08 01:01:00,
2013-09-07 18:42:00,96.0,59.0,-100.00,West,271,3.0,9.0,29,0.00,,,0.00,217.000000,,2013-09-08 01:42:00,
2013-09-07 18:52:00,96.0,59.0,-100.00,West,271,3.0,9.0,29,0.00,,,0.00,217.000000,,2013-09-08 01:52:00,
2013-09-07 19:02:00,96.0,59.0,-100.00,West,271,3.0,9.0,29,0.00,,,0.00,217.000000,,2013-09-08 02:02:00,
2013-09-07 19:43:00,93.0,57.0,-100.00,West,274,5.0,5.0,30,0.00,,,0.00,82.000000,,2013-09-08 02:43:00,
2013-09-07 19:52:00,93.0,57.0,-100.00,West,274,5.0,5.0,30,0.00,,,0.00,82.000000,,2013-09-08 02:52:00,
2013-09-07 20:02:00,93.0,57.0,-100.00,West,274,5.0,5.0,30,0.00,,,0.00,82.000000,,2013-09-08 03:02:00,
2013-09-07 21:03:00,-999.0,-99.9,-100.00,WSW,250,8.0,8.0,-999,-99.99,,,-99.99,4.000000,,2013-09-08 04:03:00,
2013-09-07 21:43:00,84.0,70.0,-100.00,WSW,250,5.0,22.0,62,-99.99,,,0.00,0.000000,,2013-09-08 04:43:00,
2013-09-07 21:54:00,84.0,70.0,-100.00,WSW,250,5.0,22.0,62,-99.99,,,0.00,0.000000,,2013-09-08 04:54:00,
2013-09-07 22:03:00,84.0,70.0,-100.00,WSW,250,5.0,22.0,62,-99.99,,,0.00,0.000000,,2013-09-08 05:03:00,
2013-09-07 22:43:00,83.0,71.0,-100.00,WNW,292,5.0,15.0,68,0.00,,,0.00,0.000000,,2013-09-08 05:43:00,
2013-09-07 22:52:00,83.0,71.0,-100.00,WNW,292,5.0,15.0,68,0.00,,,0.00,0.000000,,2013-09-08 05:52:00,
2013-09-07 23:02:00,83.0,71.0,-100.00,WNW,292,5.0,15.0,68,0.00,,,0.00,0.000000,,2013-09-08 06:02:00,
2013-09-07 23:42:00,82.0,70.0,-100.00,North,351,6.0,8.0,68,0.00,,,0.00,0.000000,,2013-09-08 06:42:00,
2013-09-07 23:53:00,82.0,70.0,-100.00,North,351,6.0,8.0,68,0.00,,,0.00,0.000000,,2013-09-08 06:53:00,